Pinoso, Spain
Current Conditions -  °F | °C
As of 4:30 AM on Tuesday 21 Oct 2014 (Local Time) from LEAL Reporting Station
Clear Clear  
Wind Chill: 59°   Ceiling: Unl
Heat Index: 59°   Visibility: 6mi
Dew Point: 54°   Wind: 2mph
Humidity: 82%   Direction: NA
Pressure: 30.09"   Gusts: NA
Location:  38.42°N, 1.03°W
Report Text: LEAL 210230Z VRB02KT CAVOK 15/12 Q1019 NOSIG
Loading
Personal Weather Stations






























Interactive Weather Map New forecast layout! Learn more

10-Day Weather Forecast

Advertisements
Track Severe Weather on mobile